createdAt,value
2023-01-13T00:01:52.943Z,4.85
2023-01-13T00:04:21.270Z,5.30
2023-01-13T00:06:50.136Z,4.53
2023-01-13T00:09:18.513Z,5.40
2023-01-13T00:11:47.991Z,4.80
2023-01-13T00:14:16.889Z,5.70
2023-01-13T00:16:45.580Z,5.75
2023-01-13T00:19:13.942Z,4.85
2023-01-13T00:21:42.628Z,4.95
2023-01-13T00:24:11.237Z,5.57
2023-01-13T00:26:39.843Z,5.55
2023-01-13T00:29:08.293Z,5.70
2023-01-13T00:31:37.557Z,6.10
2023-01-13T00:34:05.933Z,6.38
2023-01-13T00:36:34.635Z,6.22
2023-01-13T00:39:03.560Z,6.70
2023-01-13T00:41:52.319Z,6.53
2023-01-13T00:44:20.805Z,7.13
2023-01-13T00:46:49.483Z,7.63
2023-01-13T00:49:18.436Z,7.53
2023-01-13T00:51:47.159Z,6.85
2023-01-13T00:54:15.442Z,6.43
2023-01-13T00:56:44.034Z,6.03
2023-01-13T00:59:13.921Z,5.63
2023-01-13T01:01:43.164Z,6.93
2023-01-13T01:04:12.270Z,6.82
2023-01-13T01:06:41.022Z,6.68
2023-01-13T01:09:15.977Z,7.40
2023-01-13T01:11:44.947Z,6.78
2023-01-13T01:14:14.544Z,6.95
2023-01-13T01:16:43.259Z,7.65
2023-01-13T01:19:11.828Z,6.32
2023-01-13T01:21:40.698Z,7.00
2023-01-13T01:24:09.953Z,6.75
2023-01-13T01:26:42.079Z,7.73
2023-01-13T01:29:13.985Z,6.28
2023-01-13T01:31:43.726Z,6.70
2023-01-13T01:34:12.119Z,6.80
2023-01-13T01:36:40.545Z,6.72
2023-01-13T01:39:10.445Z,6.47
2023-01-13T01:41:38.816Z,5.57
2023-01-13T01:44:45.265Z,6.03
2023-01-13T01:47:18.356Z,3.65
2023-01-13T01:49:49.326Z,6.00
2023-01-13T01:52:26.887Z,5.72
2023-01-13T01:55:20.046Z,3.85
2023-01-13T01:57:57.375Z,5.88
2023-01-13T02:00:29.232Z,5.00
2023-01-13T02:02:59.444Z,5.57
2023-01-13T02:05:28.296Z,5.88
2023-01-13T02:07:59.244Z,5.55
2023-01-13T02:10:30.365Z,5.28
2023-01-13T02:13:02.621Z,5.80
2023-01-13T02:15:40.961Z,5.68
2023-01-13T02:18:22.963Z,6.25
2023-01-13T02:21:21.477Z,5.45
2023-01-13T02:24:40.220Z,5.53
2023-01-13T02:27:46.657Z,5.60
2023-01-13T02:30:59.377Z,4.80
2023-01-13T02:36:20.138Z,4.68
2023-01-13T02:38:57.874Z,5.47
2023-01-13T02:42:13.018Z,4.88
2023-01-13T02:44:48.007Z,4.40
2023-01-13T02:47:26.240Z,4.80
2023-01-13T02:50:03.236Z,4.80
2023-01-13T02:52:43.155Z,4.55
2023-01-13T02:55:17.098Z,5.35
2023-01-13T02:57:46.730Z,4.93
2023-01-13T03:00:17.217Z,5.40
2023-01-13T03:02:45.789Z,5.43
2023-01-13T03:05:16.927Z,5.07
2023-01-13T03:08:14.575Z,5.50
2023-01-13T03:11:07.421Z,5.60
2023-01-13T03:13:53.086Z,5.85
2023-01-13T03:16:59.649Z,5.22
2023-01-13T03:20:20.294Z,5.50
2023-01-13T03:23:06.768Z,5.88
2023-01-13T03:25:44.764Z,5.25
2023-01-13T03:28:29.071Z,5.82
2023-01-13T03:31:03.752Z,4.95
2023-01-13T03:33:46.075Z,5.40
2023-01-13T03:36:17.016Z,5.63
2023-01-13T03:39:11.381Z,5.43
2023-01-13T03:41:57.431Z,5.75
2023-01-13T03:44:46.613Z,5.32
2023-01-13T03:47:22.345Z,5.68
2023-01-13T03:50:05.522Z,5.07
2023-01-13T03:52:41.853Z,5.30
2023-01-13T03:55:22.780Z,4.78
2023-01-13T03:58:06.941Z,5.43
2023-01-13T04:00:48.541Z,4.38
2023-01-13T04:03:48.857Z,4.13
2023-01-13T04:06:40.942Z,4.60
2023-01-13T04:09:20.328Z,4.32
2023-01-13T04:12:07.974Z,4.57
2023-01-13T04:14:36.685Z,4.50
2023-01-13T04:17:05.703Z,4.30
2023-01-13T04:19:34.330Z,4.28
2023-01-13T04:22:03.063Z,4.10
2023-01-13T04:24:37.351Z,4.45
2023-01-13T04:27:06.467Z,4.05
2023-01-13T04:29:34.787Z,4.20
2023-01-13T04:32:03.675Z,4.78
2023-01-13T04:34:35.250Z,4.22
2023-01-13T04:37:07.967Z,4.25
2023-01-13T04:39:42.048Z,3.30
2023-01-13T04:42:11.756Z,3.78
2023-01-13T04:44:42.874Z,3.97
2023-01-13T04:47:15.168Z,3.78
2023-01-13T04:49:47.226Z,4.50
2023-01-13T04:52:17.064Z,3.58
2023-01-13T04:54:46.746Z,4.05
2023-01-13T04:57:21.429Z,3.45
2023-01-13T04:59:52.449Z,4.20
2023-01-13T05:02:24.570Z,3.63
2023-01-13T05:04:55.405Z,4.78
2023-01-13T05:07:30.082Z,3.47
2023-01-13T05:10:01.329Z,3.95
2023-01-13T05:12:51.630Z,2.28
2023-01-13T05:15:41.052Z,2.95
2023-01-13T05:18:17.239Z,3.30
2023-01-13T05:20:46.419Z,3.60
2023-01-13T05:23:33.553Z,2.92
2023-01-13T05:26:01.964Z,3.45
2023-01-13T05:28:34.636Z,3.10
2023-01-13T05:31:02.926Z,2.80
2023-01-13T05:33:31.527Z,2.78
2023-01-13T05:36:02.941Z,2.80
2023-01-13T05:38:31.673Z,3.53
2023-01-13T05:41:18.945Z,3.15
2023-01-13T05:43:56.286Z,2.88
2023-01-13T05:46:45.398Z,3.28
2023-01-13T05:49:13.943Z,3.17
2023-01-13T05:51:45.121Z,2.85
2023-01-13T05:54:13.762Z,3.88
2023-01-13T05:56:42.074Z,3.10
2023-01-13T05:59:10.678Z,3.42
2023-01-13T06:01:38.938Z,2.85
2023-01-13T06:04:07.528Z,3.08
2023-01-13T06:06:39.257Z,2.47
2023-01-13T06:09:08.009Z,3.08
2023-01-13T06:11:36.271Z,2.83
2023-01-13T06:14:04.854Z,3.17
2023-01-13T06:16:33.147Z,1.88
2023-01-13T06:19:01.723Z,3.17
2023-01-13T06:21:31.934Z,2.60
2023-01-13T06:24:02.659Z,3.05
2023-01-13T06:26:38.125Z,2.92
2023-01-13T06:29:08.367Z,3.08
2023-01-13T06:31:39.193Z,2.72
2023-01-13T06:34:34.682Z,3.20
2023-01-13T06:37:05.325Z,3.30
2023-01-13T06:39:35.996Z,3.15
2023-01-13T06:42:23.448Z,3.25
2023-01-13T06:44:52.073Z,3.33
2023-01-13T06:47:22.512Z,3.42
2023-01-13T06:49:51.109Z,3.60
2023-01-13T06:52:22.303Z,3.08
2023-01-13T06:54:53.969Z,3.15
2023-01-13T06:57:22.178Z,2.90
2023-01-13T06:59:51.545Z,3.42
2023-01-13T07:02:22.854Z,3.47
2023-01-13T07:04:57.491Z,3.42
2023-01-13T07:07:25.770Z,3.28
2023-01-13T07:09:57.300Z,3.90
2023-01-13T07:12:28.044Z,3.28
2023-01-13T07:15:15.117Z,3.27
2023-01-13T07:17:44.519Z,3.22
2023-01-13T07:20:14.965Z,3.42
2023-01-13T07:22:54.024Z,5.25
2023-01-13T07:25:29.702Z,3.65
2023-01-13T07:27:58.483Z,3.22
2023-01-13T07:30:32.210Z,3.55
2023-01-13T07:33:04.583Z,4.10
2023-01-13T07:35:33.135Z,3.47
2023-01-13T07:38:01.422Z,4.57
2023-01-13T07:40:30.694Z,3.95
2023-01-13T07:43:17.323Z,3.47
2023-01-13T07:45:48.686Z,3.33
2023-01-13T07:48:16.962Z,3.83
2023-01-13T07:50:45.629Z,4.03
2023-01-13T07:53:13.830Z,4.03
2023-01-13T07:55:49.319Z,3.05
2023-01-13T07:58:25.034Z,4.22
2023-01-13T08:00:58.188Z,4.43
2023-01-13T08:03:28.568Z,3.25
2023-01-13T08:05:57.192Z,4.25
2023-01-13T08:08:25.372Z,3.80
2023-01-13T08:10:53.947Z,3.53
2023-01-13T08:13:31.793Z,4.05
2023-01-13T08:16:02.945Z,4.00
2023-01-13T08:18:32.520Z,4.13
2023-01-13T08:21:05.380Z,5.75
2023-01-13T08:23:34.285Z,3.55
2023-01-13T08:26:09.632Z,3.30
2023-01-13T08:28:40.732Z,3.70
2023-01-13T08:31:14.726Z,3.47
2023-01-13T08:33:43.203Z,3.90
2023-01-13T08:36:14.042Z,3.55
2023-01-13T08:38:42.900Z,4.03
2023-01-13T08:41:13.525Z,3.33
2023-01-13T08:43:45.282Z,3.97
2023-01-13T08:46:16.105Z,4.85
2023-01-13T08:48:44.580Z,4.13
2023-01-13T08:51:13.407Z,4.03
2023-01-13T08:53:41.796Z,3.70
2023-01-13T08:56:13.627Z,3.70
2023-01-13T08:58:41.897Z,3.72
2023-01-13T09:01:15.374Z,3.65
2023-01-13T09:03:43.908Z,3.30
2023-01-13T09:06:13.639Z,3.45
2023-01-13T09:08:47.733Z,3.88
2023-01-13T09:11:44.804Z,3.75
2023-01-13T09:14:16.727Z,3.20
2023-01-13T09:16:45.367Z,3.58
2023-01-13T09:19:13.663Z,3.40
2023-01-13T09:21:42.225Z,3.70
2023-01-13T09:24:10.630Z,4.10
2023-01-13T09:26:39.219Z,4.75
2023-01-13T09:29:07.513Z,3.92
2023-01-13T09:31:36.455Z,4.07
2023-01-13T09:34:24.974Z,3.83
2023-01-13T09:36:54.405Z,3.45
2023-01-13T09:39:22.735Z,4.00
2023-01-13T09:42:31.259Z,4.47
2023-01-13T09:45:07.449Z,5.63
2023-01-13T09:47:41.104Z,4.80
2023-01-13T09:50:15.453Z,4.30
2023-01-13T09:52:49.960Z,3.90
2023-01-13T09:55:24.888Z,3.30
2023-01-13T09:57:53.479Z,4.05
2023-01-13T10:00:29.707Z,4.03
2023-01-13T10:03:25.308Z,4.30
2023-01-13T10:06:00.247Z,3.30
2023-01-13T10:08:50.330Z,3.50
2023-01-13T10:11:39.913Z,2.70
2023-01-13T10:14:34.976Z,3.13
2023-01-13T10:17:03.199Z,4.25
2023-01-13T10:19:41.384Z,4.03
2023-01-13T10:22:24.806Z,3.03
2023-01-13T10:25:25.599Z,2.70
2023-01-13T10:27:56.520Z,2.55
2023-01-13T10:30:31.621Z,2.35
2023-01-13T10:33:27.838Z,2.80
2023-01-13T10:36:23.213Z,2.53
2023-01-13T10:38:52.728Z,2.90
2023-01-13T10:41:28.277Z,3.40
2023-01-13T10:44:09.510Z,3.05
2023-01-13T10:46:52.288Z,3.33
2023-01-13T10:49:36.651Z,2.85
2023-01-13T10:52:26.112Z,2.88
2023-01-13T10:54:55.568Z,2.45
2023-01-13T10:57:28.716Z,3.10
2023-01-13T10:59:57.060Z,2.75
2023-01-13T11:02:29.664Z,2.80
2023-01-13T11:05:00.623Z,2.92
2023-01-13T11:07:37.723Z,2.10
2023-01-13T11:10:27.637Z,2.20
2023-01-13T11:13:07.192Z,2.35
2023-01-13T11:15:44.780Z,2.40
2023-01-13T11:18:31.625Z,2.80
2023-01-13T11:21:04.483Z,2.63
2023-01-13T11:23:39.840Z,2.72
2023-01-13T11:26:19.676Z,2.60
2023-01-13T11:29:11.878Z,3.40
2023-01-13T11:31:47.728Z,3.92
2023-01-13T11:34:32.701Z,3.15
2023-01-13T11:37:03.485Z,3.35
2023-01-13T11:39:44.190Z,3.28
2023-01-13T11:42:40.455Z,3.35
2023-01-13T11:45:22.206Z,2.75
2023-01-13T11:47:54.731Z,3.00
2023-01-13T11:50:51.215Z,3.67
2023-01-13T11:54:01.232Z,2.60
2023-01-13T11:56:57.124Z,3.05
2023-01-13T11:59:43.582Z,2.80
2023-01-13T12:02:46.283Z,2.88
2023-01-13T12:08:11.123Z,2.90
2023-01-13T12:10:49.379Z,3.30
2023-01-13T12:13:40.428Z,3.10
2023-01-13T12:16:16.036Z,3.17
2023-01-13T12:19:24.383Z,3.25
2023-01-13T12:22:11.011Z,3.80
2023-01-13T12:25:00.359Z,3.40
2023-01-13T12:27:47.453Z,3.53
2023-01-13T12:30:45.912Z,3.15
2023-01-13T12:33:33.798Z,3.05
2023-01-13T12:36:06.848Z,3.83
2023-01-13T12:38:44.293Z,3.33
2023-01-13T12:41:24.758Z,2.95
2023-01-13T12:44:12.469Z,3.22
2023-01-13T12:46:56.312Z,3.22
2023-01-13T12:49:30.590Z,4.13
2023-01-13T12:52:15.173Z,3.67
2023-01-13T12:54:43.628Z,4.70
2023-01-13T12:57:22.102Z,5.20
2023-01-13T12:59:59.462Z,5.40
2023-01-13T13:02:43.479Z,3.85
2023-01-13T13:05:15.399Z,4.95
2023-01-13T13:10:30.208Z,4.57
2023-01-13T13:13:18.270Z,5.25
2023-01-13T13:15:49.477Z,4.78
2023-01-13T13:18:18.118Z,4.70
2023-01-13T13:21:07.194Z,5.35
2023-01-13T13:23:57.013Z,5.13
2023-01-13T13:26:31.858Z,4.30
2023-01-13T13:29:06.909Z,4.10
2023-01-13T13:31:59.409Z,4.03
2023-01-13T13:34:43.422Z,4.53
2023-01-13T13:37:28.587Z,5.15
2023-01-13T13:40:16.226Z,4.72
2023-01-13T13:43:14.165Z,4.85
2023-01-13T13:46:11.422Z,4.88
2023-01-13T13:48:39.767Z,5.03
2023-01-13T13:51:29.339Z,4.25
2023-01-13T13:53:59.492Z,4.68
2023-01-13T13:56:32.547Z,5.03
2023-01-13T13:59:01.060Z,4.80
2023-01-13T14:01:36.861Z,4.57
2023-01-13T14:04:30.148Z,16.98
2023-01-13T14:07:21.755Z,6.40
2023-01-13T14:09:54.380Z,5.75
2023-01-13T14:12:27.607Z,5.30
2023-01-13T14:14:57.587Z,5.10
2023-01-13T14:17:28.772Z,4.57
2023-01-13T14:20:03.055Z,3.78
2023-01-13T14:22:32.640Z,2.92
2023-01-13T14:25:02.104Z,2.90
2023-01-13T14:27:31.208Z,2.63
2023-01-13T14:30:01.044Z,3.00
2023-01-13T14:32:36.681Z,4.47
2023-01-13T14:35:08.569Z,2.80
2023-01-13T14:37:40.436Z,2.90
2023-01-13T14:40:33.754Z,3.17
2023-01-13T14:43:14.101Z,3.67
2023-01-13T14:45:55.290Z,3.10
2023-01-13T14:48:37.268Z,2.28
2023-01-13T14:51:09.890Z,3.20
2023-01-13T14:54:24.528Z,2.97
2023-01-13T14:57:51.196Z,2.78
2023-01-13T15:00:24.740Z,2.58
2023-01-13T15:03:42.081Z,3.40
2023-01-13T15:06:26.413Z,3.25
2023-01-13T15:08:55.564Z,3.15
2023-01-13T15:11:28.193Z,2.47
2023-01-13T15:14:01.771Z,2.50
2023-01-13T15:16:35.086Z,2.25
2023-01-13T15:19:04.473Z,5.32
2023-01-13T15:21:34.409Z,1.85
2023-01-13T15:24:02.998Z,2.10
2023-01-13T15:26:35.216Z,2.47
2023-01-13T15:29:05.336Z,1.90
2023-01-13T15:31:33.979Z,2.63
2023-01-13T15:34:05.284Z,2.70
2023-01-13T15:36:34.723Z,4.75
2023-01-13T15:39:04.208Z,3.50
2023-01-13T15:42:18.350Z,3.50
2023-01-13T15:45:08.659Z,3.50
2023-01-13T15:47:38.092Z,3.00
2023-01-13T15:50:59.011Z,3.10
2023-01-13T15:53:17.255Z,3.15
2023-01-13T15:55:49.753Z,3.38
2023-01-13T15:58:32.419Z,5.35
2023-01-13T16:01:14.100Z,3.72
2023-01-13T16:03:42.949Z,4.90
2023-01-13T16:06:17.368Z,5.20
2023-01-13T16:08:48.286Z,4.70
2023-01-13T16:11:23.341Z,4.65
2023-01-13T16:13:59.424Z,6.05
2023-01-13T16:16:32.591Z,5.35
2023-01-13T16:19:22.659Z,6.25
2023-01-13T16:21:53.551Z,6.63
2023-01-13T16:24:22.572Z,6.25
2023-01-13T16:26:53.169Z,10.15
2023-01-13T16:29:26.798Z,8.10
2023-01-13T16:31:59.760Z,7.45
2023-01-13T16:34:31.471Z,6.38
2023-01-13T16:37:03.681Z,6.13
2023-01-13T16:39:34.745Z,6.85
2023-01-13T16:42:19.626Z,6.25
2023-01-13T16:54:10.776Z,7.70
2023-01-13T16:56:51.244Z,6.68
2023-01-13T16:59:44.634Z,6.32
2023-01-13T17:05:47.057Z,6.65
2023-01-13T17:08:49.731Z,6.80
2023-01-13T17:11:38.739Z,6.00
2023-01-13T17:17:28.309Z,7.72
2023-01-13T17:20:01.217Z,7.80
2023-01-13T17:25:26.968Z,7.05
2023-01-13T17:27:55.566Z,8.65
2023-01-13T17:30:28.295Z,9.02
2023-01-13T17:36:55.699Z,5.85
2023-01-13T17:40:22.199Z,5.90
2023-01-13T17:43:10.403Z,6.25
2023-01-13T17:45:44.705Z,5.47
2023-01-13T17:49:47.522Z,7.10
2023-01-13T17:52:22.313Z,6.80
2023-01-13T17:55:17.319Z,6.70
2023-01-13T17:58:14.438Z,6.40
2023-01-13T18:00:51.974Z,6.03
2023-01-13T18:03:23.278Z,5.73
2023-01-13T18:05:51.780Z,5.30
2023-01-13T18:08:34.801Z,5.07
2023-01-13T18:11:12.587Z,5.75
2023-01-13T18:13:43.603Z,5.82
2023-01-13T18:16:16.403Z,6.35
2023-01-13T18:19:52.880Z,6.40
2023-01-13T18:22:41.873Z,5.15
2023-01-13T18:25:43.479Z,5.28
2023-01-13T18:28:26.958Z,5.18
2023-01-13T18:31:22.260Z,7.45
2023-01-13T18:33:57.050Z,4.55
2023-01-13T18:36:28.354Z,5.10
2023-01-13T18:39:00.537Z,4.95
2023-01-13T18:41:51.952Z,5.60
2023-01-13T18:44:20.507Z,4.25
2023-01-13T18:46:56.201Z,4.93
2023-01-13T18:53:57.051Z,5.15
2023-01-13T18:56:27.009Z,5.88
2023-01-13T18:59:20.346Z,5.93
2023-01-13T19:01:59.449Z,4.60
2023-01-13T19:08:33.650Z,5.38
2023-01-13T19:11:08.026Z,5.72
2023-01-13T19:13:37.307Z,5.53
2023-01-13T19:16:11.658Z,5.57
2023-01-13T19:18:43.568Z,5.95
2023-01-13T19:21:17.456Z,6.43
2023-01-13T19:24:27.941Z,6.32
2023-01-13T19:27:01.259Z,7.78
2023-01-13T19:29:33.145Z,6.53
2023-01-13T19:32:02.405Z,7.68
2023-01-13T19:34:43.532Z,7.45
2023-01-13T19:37:12.366Z,7.40
2023-01-13T19:39:44.283Z,6.50
2023-01-13T19:43:01.068Z,7.20
2023-01-13T19:45:42.639Z,7.70
2023-01-13T19:48:39.524Z,7.07
2023-01-13T19:51:14.420Z,7.25
2023-01-13T19:56:23.048Z,7.28
2023-01-13T19:59:31.445Z,7.30
2023-01-13T20:02:03.919Z,7.07
2023-01-13T20:05:09.338Z,5.90
2023-01-13T20:07:51.947Z,5.47
2023-01-13T20:10:22.213Z,5.32
2023-01-13T20:16:12.488Z,4.90
2023-01-13T20:18:41.241Z,5.32
2023-01-13T20:21:11.227Z,5.25
2023-01-13T20:23:41.175Z,5.07
2023-01-13T20:26:16.066Z,6.10
2023-01-13T20:28:46.152Z,4.60
2023-01-13T20:31:15.511Z,5.07
2023-01-13T20:34:11.573Z,4.40
2023-01-13T20:36:43.793Z,5.47
2023-01-13T20:39:27.747Z,4.85
2023-01-13T20:42:42.613Z,5.10
2023-01-13T20:49:15.781Z,5.65
2023-01-13T20:51:53.416Z,5.72
2023-01-13T20:54:22.860Z,4.65
2023-01-13T20:56:54.140Z,4.80
2023-01-13T20:59:31.865Z,4.25
2023-01-13T21:02:00.439Z,5.22
2023-01-13T21:04:34.532Z,3.70
2023-01-13T21:07:28.581Z,3.70
2023-01-13T21:10:07.646Z,4.25
2023-01-13T21:12:54.680Z,3.85
2023-01-13T21:15:31.100Z,4.28
2023-01-13T21:18:20.064Z,4.32
2023-01-13T21:24:38.481Z,3.60
2023-01-13T21:27:27.437Z,4.32
2023-01-13T21:29:56.521Z,4.47
2023-01-13T21:32:25.159Z,4.20
2023-01-13T21:35:00.119Z,4.47
2023-01-13T21:37:31.290Z,4.72
2023-01-13T21:40:06.038Z,4.60
2023-01-13T21:43:03.033Z,4.22
2023-01-13T21:46:03.687Z,2.70
2023-01-13T21:48:47.042Z,3.72
2023-01-13T21:51:48.006Z,4.18
2023-01-13T21:54:20.248Z,4.35
2023-01-13T21:56:51.281Z,3.83
2023-01-13T22:11:41.132Z,4.07
2023-01-13T22:14:14.142Z,3.17
2023-01-13T22:16:49.576Z,3.72
2023-01-13T22:20:13.210Z,4.00
2023-01-13T22:22:44.497Z,3.75
2023-01-13T22:25:20.382Z,4.20
2023-01-13T22:27:49.731Z,5.07
2023-01-13T22:30:22.671Z,4.20
2023-01-13T22:32:54.457Z,3.67
2023-01-13T22:35:47.394Z,3.20
2023-01-13T22:38:20.903Z,3.80
2023-01-13T22:41:04.125Z,3.75
2023-01-13T22:43:33.052Z,3.78
2023-01-13T22:46:13.023Z,3.65
2023-01-13T22:48:43.877Z,3.45
2023-01-13T22:51:15.543Z,4.15
2023-01-13T22:53:52.273Z,3.45
2023-01-13T23:01:18.389Z,3.47
2023-01-13T23:04:07.149Z,4.03
2023-01-13T23:07:01.457Z,3.72
2023-01-13T23:09:36.014Z,3.30
2023-01-13T23:12:06.055Z,3.75
2023-01-13T23:14:34.711Z,3.67
2023-01-13T23:17:03.207Z,3.17
2023-01-13T23:19:32.523Z,3.63
2023-01-13T23:22:03.529Z,3.90
2023-01-13T23:24:57.143Z,3.50
2023-01-13T23:27:25.613Z,3.00
2023-01-13T23:29:55.996Z,3.63
2023-01-13T23:32:24.505Z,3.40
2023-01-13T23:34:54.526Z,3.33
2023-01-13T23:37:26.712Z,2.15
2023-01-13T23:39:56.613Z,3.45
2023-01-13T23:42:25.018Z,2.80
2023-01-13T23:44:53.656Z,3.17
2023-01-13T23:47:21.965Z,3.03
2023-01-13T23:49:51.427Z,3.15
2023-01-13T23:52:19.830Z,2.50
2023-01-13T23:54:48.431Z,3.60
2023-01-13T23:57:16.695Z,2.90
2023-01-13T23:59:45.856Z,3.20
